createdAt,value
2023-02-01T05:00:28.735Z,0.00
2023-02-01T05:01:29.801Z,0.00
2023-02-01T05:02:29.712Z,0.00
2023-02-01T05:03:29.700Z,0.00
2023-02-01T05:04:29.715Z,0.00
2023-02-01T05:05:29.693Z,0.00
2023-02-01T05:06:29.680Z,0.00
2023-02-01T05:07:29.663Z,0.00
2023-02-01T05:08:29.644Z,0.00
2023-02-01T05:09:29.700Z,0.00
2023-02-01T05:10:29.633Z,0.00
2023-02-01T05:11:29.614Z,0.00
2023-02-01T05:12:29.592Z,0.00
2023-02-01T05:13:29.608Z,0.00
2023-02-01T05:14:29.777Z,0.00
2023-02-01T05:15:29.596Z,0.00
2023-02-01T05:16:29.554Z,0.00
2023-02-01T05:17:29.551Z,0.00
2023-02-01T05:18:29.526Z,0.00
2023-02-01T05:19:29.531Z,0.00
2023-02-01T05:20:29.521Z,0.00
2023-02-01T05:21:29.511Z,0.00
2023-02-01T05:22:29.487Z,0.00
2023-02-01T05:23:29.474Z,0.00
2023-02-01T05:24:29.459Z,0.00
2023-02-01T05:25:29.477Z,0.00
2023-02-01T05:26:29.487Z,0.00
2023-02-01T05:27:29.455Z,0.00
2023-02-01T05:28:29.486Z,0.00
2023-02-01T05:29:29.438Z,0.00
2023-02-01T05:30:29.442Z,0.00
2023-02-01T05:31:29.518Z,0.00
2023-02-01T05:32:29.445Z,0.00
2023-02-01T05:33:29.366Z,0.00
2023-02-01T05:34:29.369Z,0.00
2023-02-01T05:35:29.362Z,0.00
2023-02-01T05:36:29.333Z,0.00
2023-02-01T05:37:29.343Z,0.00
2023-02-01T05:38:29.326Z,0.00
2023-02-01T05:39:29.311Z,0.00
2023-02-01T05:40:29.298Z,0.00
2023-02-01T05:41:29.291Z,0.00
2023-02-01T05:42:29.279Z,0.00
2023-02-01T05:43:29.267Z,0.00
2023-02-01T05:44:29.303Z,0.00
2023-02-01T05:45:29.263Z,0.00
2023-02-01T05:46:29.332Z,0.00
2023-02-01T05:47:29.230Z,0.00
2023-02-01T05:48:29.221Z,0.00
2023-02-01T05:49:29.219Z,0.00
2023-02-01T05:50:29.206Z,0.00
2023-02-01T05:51:29.182Z,0.00
2023-02-01T05:52:29.176Z,0.00
2023-02-01T05:53:29.153Z,0.00
2023-02-01T05:54:29.141Z,0.00
2023-02-01T05:55:29.152Z,0.00
2023-02-01T05:56:29.147Z,0.00
2023-02-01T05:57:29.121Z,0.00
2023-02-01T05:58:33.513Z,0.00
2023-02-01T05:59:29.095Z,0.00
2023-02-01T06:00:29.094Z,0.00
2023-02-01T06:01:29.060Z,0.00
2023-02-01T06:02:29.141Z,0.00
2023-02-01T06:03:29.080Z,0.00
2023-02-01T06:04:29.039Z,0.00
2023-02-01T06:05:29.033Z,0.00
2023-02-01T06:06:29.014Z,0.00
2023-02-01T06:07:29.823Z,0.00
2023-02-01T06:08:28.996Z,0.00
2023-02-01T06:09:28.989Z,0.00
2023-02-01T06:10:29.001Z,0.00
2023-02-01T06:11:33.040Z,0.00
2023-02-01T06:12:28.956Z,0.00
2023-02-01T06:13:28.943Z,0.00
2023-02-01T06:14:28.976Z,0.00
2023-02-01T06:15:28.923Z,0.00
2023-02-01T06:16:29.006Z,0.00
2023-02-01T06:17:28.911Z,0.00
2023-02-01T06:18:28.901Z,0.00
2023-02-01T06:19:28.884Z,0.00
2023-02-01T06:20:28.868Z,0.00
2023-02-01T06:21:28.844Z,0.00
2023-02-01T06:22:28.847Z,0.00
2023-02-01T06:23:28.837Z,0.00
2023-02-01T06:24:28.827Z,0.00
2023-02-01T06:25:28.761Z,1.00
2023-02-01T06:26:28.816Z,0.00
2023-02-01T06:27:28.793Z,0.00
2023-02-01T06:28:28.733Z,1.00
2023-02-01T06:29:28.706Z,1.00
2023-02-01T06:30:28.716Z,1.00
2023-02-01T06:31:28.824Z,1.00
2023-02-01T06:32:28.745Z,0.00
2023-02-01T06:33:28.736Z,0.00
2023-02-01T06:34:28.691Z,2.00
2023-02-01T06:35:28.657Z,1.00
2023-02-01T06:36:28.633Z,1.00
2023-02-01T06:37:28.629Z,1.00
2023-02-01T06:38:28.648Z,2.00
2023-02-01T06:39:28.624Z,2.00
2023-02-01T06:40:28.618Z,1.00
2023-02-01T06:41:29.680Z,1.00
2023-02-01T06:42:28.593Z,2.00
2023-02-01T06:43:28.566Z,7.00
2023-02-01T06:44:28.556Z,9.00
2023-02-01T06:45:28.556Z,6.00
2023-02-01T06:46:28.596Z,5.00
2023-02-01T06:47:28.578Z,4.00
2023-02-01T06:48:28.516Z,6.00
2023-02-01T06:49:28.511Z,6.00
2023-02-01T06:50:28.568Z,6.00
2023-02-01T06:51:28.512Z,5.00
2023-02-01T06:52:28.500Z,3.00
2023-02-01T06:53:28.497Z,3.00
2023-02-01T06:54:28.500Z,3.00
2023-02-01T06:55:28.459Z,4.00
2023-02-01T06:56:29.029Z,2.00
2023-02-01T06:57:28.456Z,9.00
2023-02-01T06:58:28.439Z,7.00
2023-02-01T06:59:28.475Z,8.00
2023-02-01T07:00:28.413Z,10.00
2023-02-01T07:01:28.387Z,14.00
2023-02-01T07:02:28.392Z,21.00
2023-02-01T07:03:28.367Z,24.00
2023-02-01T07:04:28.389Z,22.00
2023-02-01T07:05:28.424Z,27.00
2023-02-01T07:06:28.385Z,26.00
2023-02-01T07:07:28.303Z,23.00
2023-02-01T07:08:28.307Z,28.00
2023-02-01T07:09:28.353Z,37.00
2023-02-01T07:10:28.301Z,37.00
2023-02-01T07:11:28.389Z,36.00
2023-02-01T07:12:28.259Z,30.00
2023-02-01T07:13:28.228Z,28.00
2023-02-01T07:14:28.247Z,23.00
2023-02-01T07:15:28.404Z,21.00
2023-02-01T07:16:28.252Z,17.00
2023-02-01T07:17:28.211Z,25.00
2023-02-01T07:18:28.194Z,26.00
2023-02-01T07:19:28.175Z,28.00
2023-02-01T07:20:28.206Z,36.00
2023-02-01T07:21:28.171Z,35.00
2023-02-01T07:22:28.171Z,35.00
2023-02-01T07:23:28.140Z,49.00
2023-02-01T07:24:28.132Z,51.00
2023-02-01T07:25:28.141Z,53.00
2023-02-01T07:26:28.136Z,37.00
2023-02-01T07:27:28.123Z,42.00
2023-02-01T07:28:28.159Z,49.00
2023-02-01T07:29:28.091Z,64.00
2023-02-01T07:30:28.067Z,85.00
2023-02-01T07:31:28.057Z,57.00
2023-02-01T07:32:28.098Z,57.00
2023-02-01T07:33:28.261Z,87.00
2023-02-01T07:34:28.055Z,101.00
2023-02-01T07:35:28.004Z,109.00
2023-02-01T07:36:28.046Z,94.00
2023-02-01T07:37:27.989Z,132.00
2023-02-01T07:38:27.981Z,218.00
2023-02-01T07:39:27.983Z,223.00
2023-02-01T07:40:28.043Z,206.00
2023-02-01T07:41:27.951Z,164.00
2023-02-01T07:42:27.946Z,136.00
2023-02-01T07:43:27.928Z,122.00
2023-02-01T07:44:27.909Z,81.00
2023-02-01T07:45:27.972Z,65.00
2023-02-01T07:46:27.920Z,60.00
2023-02-01T07:47:27.877Z,63.00
2023-02-01T07:48:27.860Z,48.00
2023-02-01T07:49:27.853Z,41.00
2023-02-01T07:50:27.910Z,50.00
2023-02-01T07:51:27.857Z,49.00
2023-02-01T07:52:27.815Z,42.00
2023-02-01T07:53:27.807Z,33.00
2023-02-01T07:54:27.802Z,44.00
2023-02-01T07:55:27.827Z,42.00
2023-02-01T07:56:27.820Z,72.00
2023-02-01T07:57:27.767Z,54.00
2023-02-01T07:58:27.766Z,59.00
2023-02-01T07:59:27.748Z,45.00
2023-02-01T08:00:27.789Z,58.00
2023-02-01T08:01:27.973Z,37.00
2023-02-01T08:02:27.739Z,45.00
2023-02-01T08:03:27.716Z,43.00
2023-02-01T08:04:27.706Z,39.00
2023-02-01T08:05:27.710Z,45.00
2023-02-01T08:06:27.724Z,43.00
2023-02-01T08:07:27.670Z,39.00
2023-02-01T08:08:27.638Z,43.00
2023-02-01T08:09:27.649Z,41.00
2023-02-01T08:10:27.625Z,49.00
2023-02-01T08:11:27.665Z,44.00
2023-02-01T08:12:27.612Z,44.00
2023-02-01T08:13:27.603Z,58.00
2023-02-01T08:14:27.577Z,61.00
2023-02-01T08:15:27.580Z,68.00
2023-02-01T08:16:27.629Z,59.00
2023-02-01T08:17:27.551Z,66.00
2023-02-01T08:18:27.525Z,61.00
2023-02-01T08:19:27.530Z,67.00
2023-02-01T08:20:27.593Z,79.00
2023-02-01T08:21:27.524Z,85.00
2023-02-01T08:22:27.486Z,77.00
2023-02-01T08:23:27.491Z,76.00
2023-02-01T08:24:27.503Z,53.00
2023-02-01T08:25:27.490Z,77.00
2023-02-01T08:26:27.513Z,87.00
2023-02-01T08:27:27.492Z,69.00
2023-02-01T08:28:27.436Z,73.00
2023-02-01T08:29:27.418Z,73.00
2023-02-01T08:30:27.410Z,76.00
2023-02-01T08:31:27.458Z,86.00
2023-02-01T08:32:27.390Z,100.00
2023-02-01T08:33:27.384Z,84.00
2023-02-01T08:34:27.355Z,74.00
2023-02-01T08:35:41.385Z,90.00
2023-02-01T08:36:27.356Z,113.00
2023-02-01T08:37:27.373Z,62.00
2023-02-01T08:38:27.355Z,113.00
2023-02-01T08:39:27.327Z,119.00
2023-02-01T08:40:27.307Z,122.00
2023-02-01T08:41:27.355Z,81.00
2023-02-01T08:42:27.296Z,65.00
2023-02-01T08:43:27.280Z,88.00
2023-02-01T08:44:27.253Z,105.00
2023-02-01T08:45:27.251Z,91.00
2023-02-01T08:46:27.329Z,83.00
2023-02-01T08:47:27.247Z,81.00
2023-02-01T08:48:27.244Z,85.00
2023-02-01T08:49:27.228Z,82.00
2023-02-01T08:50:27.376Z,92.00
2023-02-01T08:51:27.191Z,115.00
2023-02-01T08:52:27.276Z,114.00
2023-02-01T08:53:27.166Z,122.00
2023-02-01T08:54:27.158Z,90.00
2023-02-01T08:55:27.173Z,121.00
2023-02-01T08:56:27.231Z,81.00
2023-02-01T08:57:27.161Z,66.00
2023-02-01T08:58:27.105Z,80.00
2023-02-01T08:59:28.078Z,89.00
2023-02-01T09:00:27.192Z,107.00
2023-02-01T09:01:27.146Z,76.00
2023-02-01T09:02:27.083Z,78.00
2023-02-01T09:03:27.061Z,120.00
2023-02-01T09:04:27.043Z,62.00
2023-02-01T09:05:28.382Z,119.00
2023-02-01T09:06:27.029Z,106.00
2023-02-01T09:07:27.055Z,82.00
2023-02-01T09:08:26.999Z,62.00
2023-02-01T09:09:26.995Z,126.00
2023-02-01T09:10:35.166Z,114.00
2023-02-01T09:11:26.978Z,101.00
2023-02-01T09:12:26.952Z,130.00
2023-02-01T09:13:26.966Z,80.00
2023-02-01T09:14:26.962Z,98.00
2023-02-01T09:15:26.993Z,109.00
2023-02-01T09:16:26.923Z,140.00
2023-02-01T09:18:26.900Z,128.00
2023-02-01T09:19:27.506Z,134.00
2023-02-01T09:20:27.072Z,161.00
2023-02-01T09:21:26.853Z,152.00
2023-02-01T09:22:26.850Z,336.00
2023-02-01T09:23:26.847Z,258.00
2023-02-01T09:24:26.831Z,348.00
2023-02-01T09:25:26.859Z,329.00
2023-02-01T09:26:32.195Z,297.00
2023-02-01T09:27:26.806Z,300.00
2023-02-01T09:28:26.792Z,192.00
2023-02-01T09:29:26.785Z,118.00
2023-02-01T09:30:26.926Z,118.00
2023-02-01T09:31:26.832Z,241.00
2023-02-01T09:32:26.871Z,133.00
2023-02-01T09:33:26.758Z,272.00
2023-02-01T09:34:26.741Z,291.00
2023-02-01T09:35:26.729Z,268.00
2023-02-01T09:36:26.702Z,399.00
2023-02-01T09:37:26.686Z,459.00
2023-02-01T09:38:26.682Z,223.00
2023-02-01T09:39:26.700Z,217.00
2023-02-01T09:40:27.103Z,339.00
2023-02-01T09:41:26.655Z,405.00
2023-02-01T09:42:26.636Z,219.00
2023-02-01T09:43:26.665Z,217.00
2023-02-01T09:44:30.150Z,265.00
2023-02-01T09:45:26.615Z,131.00
2023-02-01T09:46:26.637Z,192.00
2023-02-01T09:47:26.607Z,210.00
2023-02-01T09:48:26.569Z,212.00
2023-02-01T09:49:26.572Z,245.00
2023-02-01T09:50:26.954Z,414.00
2023-02-01T09:51:26.556Z,349.00
2023-02-01T09:52:26.520Z,383.00
2023-02-01T09:53:26.556Z,455.00
2023-02-01T09:54:26.543Z,404.00
2023-02-01T09:55:26.493Z,256.00
2023-02-01T09:56:26.482Z,313.00
2023-02-01T09:57:26.508Z,273.00
2023-02-01T09:58:26.476Z,395.00
2023-02-01T09:59:26.465Z,315.00
2023-02-01T10:00:26.923Z,304.00
2023-02-01T10:01:26.504Z,256.00
2023-02-01T10:02:26.424Z,224.00
2023-02-01T10:03:26.468Z,206.00
2023-02-01T10:04:26.449Z,91.00
2023-02-01T10:05:26.381Z,309.00
2023-02-01T10:06:26.409Z,418.00
2023-02-01T10:07:26.394Z,374.00
2023-02-01T10:08:26.357Z,338.00
2023-02-01T10:09:26.380Z,243.00
2023-02-01T10:10:26.913Z,223.00
2023-02-01T10:11:26.316Z,166.00
2023-02-01T10:12:26.323Z,168.00
2023-02-01T10:13:26.294Z,264.00
2023-02-01T10:14:26.314Z,263.00
2023-02-01T10:15:26.624Z,193.00
2023-02-01T10:16:26.409Z,210.00
2023-02-01T10:17:26.256Z,308.00
2023-02-01T10:18:26.243Z,223.00
2023-02-01T10:19:26.242Z,125.00
2023-02-01T10:20:26.691Z,447.00
2023-02-01T10:21:26.217Z,540.00
2023-02-01T10:22:41.084Z,416.00
2023-02-01T10:23:33.870Z,302.00
2023-02-01T10:24:26.196Z,603.00
2023-02-01T10:25:26.175Z,511.00
2023-02-01T10:26:26.216Z,458.00
2023-02-01T10:27:26.147Z,697.00
2023-02-01T10:28:26.136Z,637.00
2023-02-01T10:29:26.144Z,474.00
2023-02-01T10:30:26.505Z,273.00
2023-02-01T10:31:26.217Z,1559.00
2023-02-01T10:32:26.096Z,596.00
2023-02-01T10:33:26.089Z,1052.00
2023-02-01T10:34:26.082Z,485.00
2023-02-01T10:35:26.077Z,479.00
2023-02-01T10:36:26.047Z,335.00
2023-02-01T10:37:26.042Z,1645.00
2023-02-01T10:38:26.038Z,1259.00
2023-02-01T10:39:26.058Z,962.00
2023-02-01T10:40:26.494Z,422.00
2023-02-01T10:41:25.999Z,174.00
2023-02-01T10:42:25.987Z,159.00
2023-02-01T10:43:25.976Z,200.00
2023-02-01T10:44:25.957Z,233.00
2023-02-01T10:45:25.978Z,107.00
2023-02-01T10:46:25.968Z,135.00
2023-02-01T10:47:25.943Z,275.00
2023-02-01T10:48:25.916Z,198.00
2023-02-01T10:49:25.925Z,212.00
2023-02-01T10:50:25.974Z,196.00
2023-02-01T10:51:25.901Z,162.00
2023-02-01T10:52:25.889Z,237.00
2023-02-01T10:53:25.911Z,226.00
2023-02-01T10:54:25.849Z,238.00
2023-02-01T10:55:25.863Z,288.00
2023-02-01T10:56:25.840Z,302.00
2023-02-01T10:57:25.830Z,407.00
2023-02-01T10:58:25.817Z,425.00
2023-02-01T10:59:25.806Z,278.00
2023-02-01T11:00:26.031Z,235.00
2023-02-01T11:01:25.812Z,201.00
2023-02-01T11:02:25.883Z,146.00
2023-02-01T11:03:25.765Z,160.00
2023-02-01T11:04:25.777Z,175.00
2023-02-01T11:05:25.756Z,260.00
2023-02-01T11:06:25.751Z,274.00
2023-02-01T11:07:25.734Z,201.00
2023-02-01T11:08:25.708Z,193.00
2023-02-01T11:09:25.779Z,201.00
2023-02-01T11:10:25.732Z,435.00
2023-02-01T11:11:25.703Z,624.00
2023-02-01T11:12:25.675Z,434.00
2023-02-01T11:13:25.676Z,206.00
2023-02-01T11:14:25.658Z,611.00
2023-02-01T11:15:26.097Z,699.00
2023-02-01T11:16:25.654Z,1141.00
2023-02-01T11:17:25.622Z,467.00
2023-02-01T11:18:25.604Z,696.00
2023-02-01T11:19:25.623Z,561.00
2023-02-01T11:20:25.562Z,496.00
2023-02-01T11:21:25.631Z,344.00
2023-02-01T11:22:25.554Z,1823.00
2023-02-01T11:23:25.583Z,1036.00
2023-02-01T11:24:25.534Z,1046.00
2023-02-01T11:25:25.963Z,1131.00
2023-02-01T11:26:25.581Z,1042.00
2023-02-01T11:27:27.658Z,831.00
2023-02-01T11:28:25.504Z,736.00
2023-02-01T11:29:25.495Z,825.00
2023-02-01T11:30:25.564Z,1347.00
2023-02-01T11:31:25.508Z,1031.00
2023-02-01T11:32:25.444Z,1570.00
2023-02-01T11:33:25.443Z,573.00
2023-02-01T11:34:25.443Z,716.00
2023-02-01T11:35:25.865Z,3774.00
2023-02-01T11:36:25.436Z,1113.00
2023-02-01T11:37:25.428Z,3075.00
2023-02-01T11:38:25.392Z,2906.00
2023-02-01T11:39:25.382Z,935.00
2023-02-01T11:40:25.642Z,593.00
2023-02-01T11:41:25.440Z,1045.00
2023-02-01T11:42:25.364Z,5525.00
2023-02-01T11:43:25.339Z,622.00
2023-02-01T11:44:25.319Z,3214.00
2023-02-01T11:45:25.310Z,2630.00
2023-02-01T11:46:25.309Z,1654.00
2023-02-01T11:47:25.337Z,1185.00
2023-02-01T11:48:27.174Z,547.00
2023-02-01T11:49:25.287Z,375.00
2023-02-01T11:50:25.641Z,547.00
2023-02-01T11:51:25.256Z,745.00
2023-02-01T11:52:25.271Z,922.00
2023-02-01T11:53:25.272Z,835.00
2023-02-01T11:54:25.205Z,837.00
2023-02-01T11:55:25.218Z,803.00
2023-02-01T11:56:25.215Z,737.00
2023-02-01T11:57:25.201Z,543.00
2023-02-01T11:58:25.159Z,932.00
2023-02-01T11:59:25.199Z,988.00
2023-02-01T12:00:25.595Z,1008.00
2023-02-01T12:01:25.189Z,1090.00
2023-02-01T12:02:25.252Z,429.00
2023-02-01T12:03:25.180Z,293.00
2023-02-01T12:04:25.101Z,1256.00
2023-02-01T12:05:25.120Z,462.00
2023-02-01T12:06:25.105Z,2445.00
2023-02-01T12:07:25.088Z,1258.00
2023-02-01T12:08:25.195Z,1625.00
2023-02-01T12:09:25.071Z,1026.00
2023-02-01T12:10:25.443Z,559.00
2023-02-01T12:11:25.031Z,3311.00
2023-02-01T12:12:25.038Z,2649.00
2023-02-01T12:13:25.035Z,892.00
2023-02-01T12:14:25.008Z,1880.00
2023-02-01T12:15:24.990Z,1316.00
2023-02-01T12:16:25.048Z,1339.00
2023-02-01T12:17:24.983Z,904.00
2023-02-01T12:18:24.968Z,910.00
2023-02-01T12:19:24.946Z,759.00
2023-02-01T12:20:25.358Z,800.00
2023-02-01T12:21:24.920Z,461.00
2023-02-01T12:22:24.956Z,298.00
2023-02-01T12:23:24.919Z,1239.00
2023-02-01T12:24:24.908Z,929.00
2023-02-01T12:25:24.903Z,465.00
2023-02-01T12:26:24.928Z,224.00
2023-02-01T12:27:24.878Z,1282.00
2023-02-01T12:28:24.862Z,623.00
2023-02-01T12:29:24.842Z,521.00
2023-02-01T12:30:25.260Z,252.00
2023-02-01T12:31:25.026Z,235.00
2023-02-01T12:32:24.852Z,546.00
2023-02-01T12:33:24.797Z,746.00
2023-02-01T12:34:24.780Z,576.00
2023-02-01T12:35:24.778Z,402.00
2023-02-01T12:36:24.784Z,261.00
2023-02-01T12:37:24.753Z,212.00
2023-02-01T12:38:24.742Z,242.00
2023-02-01T12:39:24.714Z,310.00
2023-02-01T12:40:25.114Z,477.00
2023-02-01T12:41:24.737Z,508.00
2023-02-01T12:42:24.731Z,486.00
2023-02-01T12:43:24.702Z,433.00
2023-02-01T12:44:24.668Z,291.00
2023-02-01T12:45:24.659Z,308.00
2023-02-01T12:46:24.686Z,269.00
2023-02-01T12:47:24.658Z,448.00
2023-02-01T12:48:24.630Z,515.00
2023-02-01T12:49:24.619Z,468.00
2023-02-01T12:50:24.959Z,342.00
2023-02-01T12:51:24.601Z,330.00
2023-02-01T12:52:24.613Z,436.00
2023-02-01T12:53:24.570Z,345.00
2023-02-01T12:54:24.569Z,224.00
2023-02-01T12:55:24.577Z,304.00
2023-02-01T12:56:24.558Z,334.00
2023-02-01T12:57:24.524Z,329.00
2023-02-01T12:58:24.565Z,318.00
2023-02-01T12:59:24.514Z,225.00
2023-02-01T13:00:24.884Z,214.00
2023-02-01T13:01:24.688Z,312.00
2023-02-01T13:02:24.598Z,339.00
2023-02-01T13:03:24.463Z,361.00
2023-02-01T13:04:24.460Z,333.00
2023-02-01T13:05:24.439Z,197.00
2023-02-01T13:06:24.429Z,196.00
2023-02-01T13:07:24.419Z,542.00
2023-02-01T13:08:24.412Z,448.00
2023-02-01T13:09:24.396Z,220.00
2023-02-01T13:10:24.742Z,252.00
2023-02-01T13:11:24.362Z,370.00
2023-02-01T13:12:24.353Z,438.00
2023-02-01T13:13:24.359Z,640.00
2023-02-01T13:14:24.761Z,519.00
2023-02-01T13:15:24.321Z,421.00
2023-02-01T13:16:24.343Z,342.00
2023-02-01T13:17:24.360Z,424.00
2023-02-01T13:18:24.291Z,546.00
2023-02-01T13:19:24.285Z,419.00
2023-02-01T13:20:24.745Z,482.00
2023-02-01T13:21:24.260Z,527.00
2023-02-01T13:22:24.273Z,806.00
2023-02-01T13:23:24.275Z,860.00
2023-02-01T13:24:24.252Z,799.00
2023-02-01T13:25:24.621Z,719.00
2023-02-01T13:26:24.277Z,572.00
2023-02-01T13:27:24.204Z,463.00
2023-02-01T13:28:24.208Z,410.00
2023-02-01T13:29:24.184Z,417.00
2023-02-01T13:30:24.217Z,298.00
2023-02-01T13:31:24.272Z,263.00
2023-02-01T13:32:57.156Z,189.00
2023-02-01T13:33:59.627Z,196.00
2023-02-01T13:34:24.119Z,276.00
2023-02-01T13:35:24.462Z,267.00
2023-02-01T13:36:24.120Z,267.00
2023-02-01T13:37:24.102Z,318.00
2023-02-01T13:38:24.093Z,380.00
2023-02-01T13:39:24.077Z,350.00
2023-02-01T13:40:24.062Z,320.00
2023-02-01T13:41:24.107Z,302.00
2023-02-01T13:42:24.037Z,247.00
2023-02-01T13:43:24.039Z,288.00
2023-02-01T13:44:24.039Z,279.00
2023-02-01T13:45:24.354Z,286.00
2023-02-01T13:46:24.056Z,265.00
2023-02-01T13:47:24.000Z,274.00
2023-02-01T13:48:23.989Z,280.00
2023-02-01T13:49:23.967Z,321.00
2023-02-01T13:50:24.014Z,347.00
2023-02-01T13:51:23.954Z,361.00
2023-02-01T13:52:23.962Z,379.00
2023-02-01T13:53:23.940Z,371.00
2023-02-01T13:54:23.912Z,381.00
2023-02-01T13:55:24.325Z,385.00
2023-02-01T13:56:23.957Z,370.00
2023-02-01T13:57:23.889Z,343.00
2023-02-01T13:58:23.886Z,312.00
2023-02-01T13:59:23.845Z,319.00
2023-02-01T14:00:23.840Z,299.00
2023-02-01T14:01:24.039Z,248.00
2023-02-01T14:02:23.850Z,229.00
2023-02-01T14:03:23.862Z,212.00
2023-02-01T14:04:23.834Z,249.00
2023-02-01T14:05:24.116Z,289.00
2023-02-01T14:06:23.790Z,278.00
2023-02-01T14:07:23.782Z,295.00
2023-02-01T14:08:23.764Z,268.00
2023-02-01T14:09:23.747Z,191.00
2023-02-01T14:10:24.215Z,154.00
2023-02-01T14:11:23.706Z,112.00
2023-02-01T14:12:23.754Z,99.00
2023-02-01T14:13:23.708Z,87.00
2023-02-01T14:14:23.707Z,71.00
2023-02-01T14:15:24.127Z,39.00
2023-02-01T14:16:23.661Z,51.00
2023-02-01T14:17:23.714Z,74.00
2023-02-01T14:18:23.668Z,103.00
2023-02-01T14:19:23.645Z,115.00
2023-02-01T14:20:24.065Z,112.00
2023-02-01T14:21:24.313Z,120.00
2023-02-01T14:22:23.594Z,133.00
2023-02-01T14:23:23.595Z,137.00
2023-02-01T14:24:23.622Z,155.00
2023-02-01T14:25:23.840Z,141.00
2023-02-01T14:26:23.626Z,77.00
2023-02-01T14:27:23.548Z,102.00
2023-02-01T14:28:23.538Z,122.00
2023-02-01T14:29:23.561Z,140.00
2023-02-01T14:30:24.040Z,140.00
2023-02-01T14:31:23.619Z,144.00
2023-02-01T14:32:23.496Z,149.00
2023-02-01T14:33:23.477Z,144.00
2023-02-01T14:34:23.497Z,135.00
2023-02-01T14:35:23.732Z,124.00
2023-02-01T14:36:23.477Z,115.00
2023-02-01T14:37:23.451Z,113.00
2023-02-01T14:38:23.424Z,105.00
2023-02-01T14:39:23.422Z,99.00
2023-02-01T14:40:23.409Z,103.00
2023-02-01T14:41:23.407Z,107.00
2023-02-01T14:42:23.385Z,106.00
2023-02-01T14:43:32.819Z,110.00
2023-02-01T14:44:23.366Z,120.00
2023-02-01T14:45:24.318Z,127.00
2023-02-01T14:46:23.671Z,138.00
2023-02-01T14:47:23.335Z,119.00
2023-02-01T14:48:23.325Z,102.00
2023-02-01T14:49:23.327Z,108.00
2023-02-01T14:50:23.308Z,110.00
2023-02-01T14:51:23.300Z,82.00
2023-02-01T14:52:23.271Z,65.00
2023-02-01T14:53:23.268Z,81.00
2023-02-01T14:54:23.257Z,92.00
2023-02-01T14:55:23.550Z,96.00
2023-02-01T14:56:23.249Z,99.00
2023-02-01T14:57:23.276Z,101.00
2023-02-01T14:58:23.212Z,87.00
2023-02-01T14:59:23.192Z,85.00
2023-02-01T15:00:23.197Z,92.00
2023-02-01T15:01:23.225Z,47.00
2023-02-01T15:02:23.191Z,46.00
2023-02-01T15:03:23.153Z,40.00
2023-02-01T15:04:23.144Z,54.00
2023-02-01T15:05:23.415Z,44.00
2023-02-01T15:06:23.151Z,31.00
2023-02-01T15:07:23.114Z,34.00
2023-02-01T15:08:23.146Z,40.00
2023-02-01T15:09:23.105Z,42.00
2023-02-01T15:10:23.104Z,42.00
2023-02-01T15:11:23.097Z,38.00
2023-02-01T15:12:23.080Z,35.00
2023-02-01T15:13:23.063Z,31.00
2023-02-01T15:14:23.036Z,38.00
2023-02-01T15:15:23.474Z,37.00
2023-02-01T15:16:23.170Z,31.00
2023-02-01T15:17:23.004Z,29.00
2023-02-01T15:18:23.000Z,25.00
2023-02-01T15:19:22.975Z,25.00
2023-02-01T15:20:22.968Z,22.00
2023-02-01T15:21:28.467Z,16.00
2023-02-01T15:22:22.978Z,15.00
2023-02-01T15:23:22.960Z,12.00
2023-02-01T15:24:22.970Z,10.00
2023-02-01T15:25:23.259Z,7.00
2023-02-01T15:26:22.971Z,8.00
2023-02-01T15:27:22.937Z,8.00
2023-02-01T15:28:22.964Z,3.00
2023-02-01T15:29:22.878Z,4.00
2023-02-01T15:30:22.871Z,4.00
2023-02-01T15:31:23.035Z,4.00
2023-02-01T15:32:22.851Z,4.00
2023-02-01T15:33:22.827Z,3.00
2023-02-01T15:34:22.834Z,5.00
2023-02-01T15:35:23.231Z,5.00
2023-02-01T15:36:22.793Z,3.00
2023-02-01T15:37:22.827Z,4.00
2023-02-01T15:38:22.877Z,2.00
2023-02-01T15:39:22.758Z,3.00
2023-02-01T15:40:22.754Z,3.00
2023-02-01T15:41:22.808Z,2.00
2023-02-01T15:42:22.760Z,2.00
2023-02-01T15:43:22.717Z,2.00
2023-02-01T15:44:22.709Z,2.00
2023-02-01T15:45:23.011Z,2.00
2023-02-01T15:46:22.714Z,2.00
2023-02-01T15:47:22.680Z,2.00
2023-02-01T15:48:22.703Z,2.00
2023-02-01T15:49:22.709Z,0.00
2023-02-01T15:50:24.615Z,0.00
2023-02-01T15:51:22.688Z,0.00
2023-02-01T15:52:22.694Z,0.00
2023-02-01T15:53:22.701Z,0.00
2023-02-01T15:54:22.670Z,1.00
2023-02-01T15:55:22.957Z,2.00
2023-02-01T15:56:22.581Z,1.00
2023-02-01T15:57:22.615Z,0.00
2023-02-01T15:58:22.584Z,1.00
2023-02-01T15:59:22.552Z,1.00
2023-02-01T16:00:22.553Z,1.00
2023-02-01T16:01:22.627Z,1.00
2023-02-01T16:02:22.575Z,0.00
2023-02-01T16:03:22.666Z,0.00
2023-02-01T16:04:22.569Z,0.00
2023-02-01T16:05:22.898Z,0.00
2023-02-01T16:06:22.536Z,0.00
2023-02-01T16:07:22.524Z,0.00
2023-02-01T16:08:22.534Z,0.00
2023-02-01T16:09:22.509Z,0.00
2023-02-01T16:10:22.482Z,0.00
2023-02-01T16:11:22.479Z,0.00
2023-02-01T16:12:22.464Z,0.00
2023-02-01T16:13:22.535Z,0.00
2023-02-01T16:14:22.480Z,0.00
2023-02-01T16:15:22.831Z,0.00
2023-02-01T16:16:22.426Z,0.00
2023-02-01T16:17:22.408Z,0.00
2023-02-01T16:18:22.419Z,0.00
2023-02-01T16:19:22.408Z,0.00
2023-02-01T16:20:22.409Z,0.00
2023-02-01T16:21:22.373Z,0.00
2023-02-01T16:22:22.392Z,0.00
2023-02-01T16:23:22.380Z,0.00
2023-02-01T16:24:22.338Z,0.00
2023-02-01T16:25:22.675Z,0.00
2023-02-01T16:26:22.394Z,0.00
2023-02-01T16:27:22.305Z,0.00
2023-02-01T16:28:22.336Z,0.00
2023-02-01T16:29:22.315Z,0.00
2023-02-01T16:30:22.283Z,0.00
2023-02-01T16:31:22.396Z,0.00
2023-02-01T16:32:22.261Z,0.00
2023-02-01T16:33:22.262Z,0.00
2023-02-01T16:34:22.245Z,0.00
2023-02-01T16:35:22.732Z,0.00
2023-02-01T16:36:22.211Z,0.00
2023-02-01T16:37:22.284Z,0.00
2023-02-01T16:38:22.191Z,0.00
2023-02-01T16:39:22.183Z,0.00
2023-02-01T16:40:22.177Z,0.00
2023-02-01T16:41:22.148Z,0.00
2023-02-01T16:42:22.188Z,0.00
2023-02-01T16:43:22.167Z,0.00
2023-02-01T16:44:22.162Z,0.00
2023-02-01T16:45:22.476Z,0.00
2023-02-01T16:46:22.107Z,0.00
2023-02-01T16:47:23.584Z,0.00
2023-02-01T16:48:22.084Z,0.00
2023-02-01T16:49:22.078Z,0.00
2023-02-01T16:50:23.823Z,0.00
2023-02-01T16:51:22.074Z,0.00
2023-02-01T16:52:22.029Z,0.00
2023-02-01T16:53:22.436Z,0.00
2023-02-01T16:54:22.027Z,0.00
2023-02-01T16:55:22.208Z,0.00
2023-02-01T16:56:22.103Z,0.00
2023-02-01T16:57:22.053Z,0.00
2023-02-01T16:58:21.994Z,0.00
2023-02-01T16:59:21.965Z,0.00
2023-02-01T17:00:25.049Z,0.00
2023-02-01T17:01:22.015Z,0.00
2023-02-01T17:02:21.962Z,0.00
2023-02-01T17:03:21.940Z,0.00
2023-02-01T17:04:22.046Z,0.00
2023-02-01T17:05:22.671Z,0.00
2023-02-01T17:06:21.922Z,0.00
2023-02-01T17:07:21.938Z,0.00
2023-02-01T17:08:21.855Z,0.00
2023-02-01T17:09:21.964Z,0.00
2023-02-01T17:10:32.604Z,0.00
2023-02-01T17:11:21.848Z,0.00
2023-02-01T17:12:21.820Z,0.00
2023-02-01T17:13:21.804Z,0.00
2023-02-01T17:14:21.791Z,0.00
2023-02-01T17:15:22.221Z,0.00
2023-02-01T17:16:22.677Z,0.00
2023-02-01T17:17:29.042Z,0.00
2023-02-01T17:18:21.762Z,0.00
2023-02-01T17:19:21.761Z,0.00
2023-02-01T17:20:21.749Z,0.00
2023-02-01T17:21:21.722Z,0.00
2023-02-01T17:22:21.738Z,0.00
2023-02-01T17:23:22.698Z,0.00
2023-02-01T17:24:21.686Z,0.00
2023-02-01T17:25:22.104Z,0.00
2023-02-01T17:26:21.701Z,0.00
2023-02-01T17:27:21.662Z,0.00
2023-02-01T17:28:21.664Z,0.00
2023-02-01T17:29:21.643Z,0.00
2023-02-01T17:30:21.639Z,0.00
2023-02-01T17:31:21.854Z,0.00
2023-02-01T17:32:21.712Z,0.00
2023-02-01T17:33:22.463Z,0.00
2023-02-01T17:34:21.588Z,0.00
2023-02-01T17:35:22.355Z,0.00
2023-02-01T17:36:21.560Z,0.00
2023-02-01T17:37:21.553Z,0.00
2023-02-01T17:38:21.540Z,0.00
2023-02-01T17:39:21.537Z,0.00
2023-02-01T17:40:21.513Z,0.00
2023-02-01T17:41:21.577Z,0.00
2023-02-01T17:42:21.487Z,0.00
2023-02-01T17:43:21.506Z,0.00
2023-02-01T17:44:21.464Z,0.00
2023-02-01T17:45:21.833Z,0.00
2023-02-01T17:46:21.523Z,0.00
2023-02-01T17:47:21.453Z,0.00
2023-02-01T17:48:21.445Z,0.00
2023-02-01T17:49:21.419Z,0.00